createdAt,value
2019-03-03T00:00:46.876Z,7.84
2019-03-03T00:03:16.192Z,7.87
2019-03-03T00:05:45.301Z,7.90
2019-03-03T00:08:14.318Z,7.94
2019-03-03T00:10:43.374Z,7.93
2019-03-03T00:13:12.391Z,7.96
2019-03-03T00:15:41.447Z,7.97
2019-03-03T00:18:10.506Z,7.97
2019-03-03T00:20:39.553Z,8.00
2019-03-03T00:23:08.572Z,8.07
2019-03-03T00:25:39.822Z,8.05
2019-03-03T00:28:08.359Z,8.11
2019-03-03T00:30:37.438Z,8.11
2019-03-03T00:33:06.446Z,8.15
2019-03-03T00:35:35.458Z,8.15
2019-03-03T00:38:12.059Z,8.19
2019-03-03T00:40:52.997Z,8.18
2019-03-03T00:43:41.082Z,8.21
2019-03-03T00:46:35.454Z,8.26
2019-03-03T00:49:21.567Z,8.29
2019-03-03T00:52:01.110Z,8.37
2019-03-03T00:54:51.883Z,8.37
2019-03-03T00:57:43.019Z,8.43
2019-03-03T01:00:54.820Z,8.45
2019-03-03T01:03:27.400Z,8.47
2019-03-03T01:06:24.415Z,8.48
2019-03-03T01:09:04.362Z,8.55
2019-03-03T01:11:55.745Z,8.54
2019-03-03T01:14:42.571Z,8.64
2019-03-03T01:17:30.556Z,8.68
2019-03-03T01:20:06.732Z,8.68
2019-03-03T01:22:48.287Z,8.72
2019-03-03T01:25:17.342Z,8.71
2019-03-03T01:27:46.352Z,8.75
2019-03-03T01:30:15.511Z,8.81
2019-03-03T01:32:44.521Z,8.84
2019-03-03T01:35:13.533Z,8.91
2019-03-03T01:37:42.578Z,8.98
2019-03-03T01:40:12.053Z,9.05
2019-03-03T01:42:41.442Z,9.09
2019-03-03T01:45:11.644Z,9.16
2019-03-03T01:47:40.689Z,9.15
2019-03-03T01:50:10.166Z,9.17
2019-03-03T01:52:39.233Z,9.19
2019-03-03T01:55:09.142Z,9.24
2019-03-03T01:57:38.187Z,9.28
2019-03-03T02:00:16.845Z,9.22
2019-03-03T02:02:45.858Z,9.30
2019-03-03T02:05:14.914Z,9.33
2019-03-03T02:07:43.928Z,9.32
2019-03-03T02:10:13.291Z,9.32
2019-03-03T02:12:42.448Z,9.37
2019-03-03T02:15:12.097Z,9.36
2019-03-03T02:17:41.150Z,9.38
2019-03-03T02:20:10.402Z,9.41
2019-03-03T02:22:39.410Z,9.37
2019-03-03T02:25:08.851Z,9.40
2019-03-03T02:27:37.818Z,9.44
2019-03-03T02:30:12.747Z,9.47
2019-03-03T02:32:41.765Z,9.40
2019-03-03T02:35:11.021Z,9.51
2019-03-03T02:37:40.254Z,9.50
2019-03-03T02:40:11.396Z,9.47
2019-03-03T02:42:40.449Z,9.51
2019-03-03T02:45:11.210Z,9.56
2019-03-03T02:47:40.605Z,9.57
2019-03-03T02:50:10.848Z,9.58
2019-03-03T02:52:40.002Z,9.61
2019-03-03T02:55:10.375Z,9.62
2019-03-03T02:57:39.476Z,9.66
2019-03-03T03:00:15.920Z,9.69
2019-03-03T03:02:47.784Z,9.68
2019-03-03T03:05:21.838Z,9.70
2019-03-03T03:08:09.715Z,9.69
2019-03-03T03:10:57.756Z,9.70
2019-03-03T03:13:58.113Z,9.69
2019-03-03T03:16:32.992Z,9.65
2019-03-03T03:19:19.858Z,9.58
2019-03-03T03:22:00.118Z,9.53
2019-03-03T03:24:48.110Z,9.53
2019-03-03T03:27:28.212Z,9.51
2019-03-03T03:30:16.249Z,9.52
2019-03-03T03:32:50.245Z,9.52
2019-03-03T03:35:37.244Z,9.49
2019-03-03T03:38:19.106Z,9.50
2019-03-03T03:40:53.873Z,9.52
2019-03-03T03:43:40.595Z,9.51
2019-03-03T03:46:20.018Z,9.53
2019-03-03T03:49:02.795Z,9.50
2019-03-03T03:51:55.211Z,9.45
2019-03-03T03:54:58.483Z,9.44
2019-03-03T03:57:42.965Z,9.39
2019-03-03T04:00:18.956Z,9.37
2019-03-03T04:03:12.946Z,9.43
2019-03-03T04:06:07.078Z,9.40
2019-03-03T04:08:53.311Z,9.44
2019-03-03T04:11:27.874Z,9.42
2019-03-03T04:14:14.337Z,9.39
2019-03-03T04:17:14.699Z,9.37
2019-03-03T04:19:59.972Z,9.33
2019-03-03T04:22:57.108Z,9.34
2019-03-03T04:25:37.659Z,9.30
2019-03-03T04:28:19.609Z,9.29
2019-03-03T04:31:25.808Z,9.27
2019-03-03T04:34:10.218Z,9.24
2019-03-03T04:36:55.798Z,9.24
2019-03-03T04:39:41.277Z,9.19
2019-03-03T04:42:26.964Z,9.16
2019-03-03T04:45:15.921Z,9.20
2019-03-03T04:47:59.731Z,9.23
2019-03-03T04:50:47.689Z,9.19
2019-03-03T04:53:24.651Z,9.21
2019-03-03T04:56:18.813Z,9.18
2019-03-03T04:59:04.205Z,9.18
2019-03-03T05:01:50.349Z,9.20
2019-03-03T05:04:30.758Z,9.19
2019-03-03T05:07:06.241Z,9.14
2019-03-03T05:09:47.008Z,9.10
2019-03-03T05:12:45.594Z,9.12
2019-03-03T05:15:34.057Z,9.14
2019-03-03T05:18:22.412Z,9.08
2019-03-03T05:20:52.369Z,9.12
2019-03-03T05:23:21.766Z,9.18
2019-03-03T05:25:50.815Z,9.13
2019-03-03T05:28:19.795Z,9.17
2019-03-03T05:30:48.812Z,9.15
2019-03-03T05:33:17.873Z,9.16
2019-03-03T05:35:46.894Z,9.18
2019-03-03T05:38:15.927Z,9.19
2019-03-03T05:40:44.992Z,9.20
2019-03-03T05:43:14.051Z,9.22
2019-03-03T05:45:43.418Z,9.23
2019-03-03T05:48:12.432Z,9.23
2019-03-03T05:50:41.485Z,9.20
2019-03-03T05:53:10.564Z,9.20
2019-03-03T05:55:39.576Z,9.21
2019-03-03T05:58:08.621Z,9.23
2019-03-03T06:00:37.667Z,9.28
2019-03-03T06:03:06.965Z,9.24
2019-03-03T06:05:35.973Z,9.27
2019-03-03T06:08:04.989Z,9.23
2019-03-03T06:10:34.048Z,9.19
2019-03-03T06:13:03.052Z,9.22
2019-03-03T06:15:32.061Z,9.20
2019-03-03T06:18:01.036Z,9.17
2019-03-03T06:20:30.040Z,9.22
2019-03-03T06:22:59.052Z,9.23
2019-03-03T06:25:28.093Z,9.22
2019-03-03T06:27:57.134Z,9.27
2019-03-03T06:30:26.201Z,9.20
2019-03-03T06:32:56.421Z,9.18
2019-03-03T06:35:25.464Z,9.23
2019-03-03T06:37:54.468Z,9.28
2019-03-03T06:40:23.483Z,9.21
2019-03-03T06:42:52.887Z,9.21
2019-03-03T06:45:21.912Z,9.20
2019-03-03T06:47:50.940Z,9.25
2019-03-03T06:50:19.995Z,9.31
2019-03-03T06:52:49.051Z,9.28
2019-03-03T06:55:18.142Z,9.27
2019-03-03T06:57:47.061Z,9.32
2019-03-03T07:00:17.318Z,9.35
2019-03-03T07:02:46.328Z,9.35
2019-03-03T07:05:15.355Z,9.33
2019-03-03T07:07:44.443Z,9.35
2019-03-03T07:10:14.373Z,9.33
2019-03-03T07:12:43.462Z,9.31
2019-03-03T07:15:14.618Z,9.30
2019-03-03T07:17:43.675Z,9.31
2019-03-03T07:20:13.142Z,9.33
2019-03-03T07:22:42.214Z,9.35
2019-03-03T07:25:12.282Z,9.36
2019-03-03T07:27:41.349Z,9.39
2019-03-03T07:30:14.465Z,9.37
2019-03-03T07:32:51.016Z,9.40
2019-03-03T07:35:20.184Z,9.44
2019-03-03T07:37:49.197Z,9.48
2019-03-03T07:40:18.228Z,9.54
2019-03-03T07:42:47.306Z,9.58
2019-03-03T07:45:16.304Z,9.54
2019-03-03T07:47:45.334Z,9.62
2019-03-03T07:50:14.390Z,9.68
2019-03-03T07:52:43.329Z,9.80
2019-03-03T07:55:12.376Z,9.98
2019-03-03T07:57:41.421Z,10.20
2019-03-03T08:00:11.000Z,10.36
2019-03-03T08:02:40.131Z,10.37
2019-03-03T08:05:09.163Z,10.56
2019-03-03T08:07:38.238Z,10.55
2019-03-03T08:10:07.881Z,10.57
2019-03-03T08:12:36.901Z,10.46
2019-03-03T08:15:06.280Z,10.39
2019-03-03T08:17:35.295Z,10.46
2019-03-03T08:20:05.549Z,10.59
2019-03-03T08:22:34.576Z,10.56
2019-03-03T08:25:03.587Z,10.50
2019-03-03T08:27:32.627Z,10.54
2019-03-03T08:30:01.991Z,10.55
2019-03-03T08:32:31.046Z,10.68
2019-03-03T08:35:00.174Z,10.65
2019-03-03T08:37:29.222Z,10.61
2019-03-03T08:39:58.229Z,10.56
2019-03-03T08:43:04.433Z,10.61
2019-03-03T08:45:51.433Z,10.58
2019-03-03T08:48:42.808Z,10.61
2019-03-03T08:51:33.062Z,10.64
2019-03-03T08:54:20.463Z,10.63
2019-03-03T08:57:03.897Z,10.82
2019-03-03T08:59:45.543Z,10.81
2019-03-03T09:02:33.603Z,10.78
2019-03-03T09:05:30.718Z,10.97
2019-03-03T09:08:12.007Z,11.14
2019-03-03T09:10:53.551Z,11.28
2019-03-03T09:13:32.717Z,11.25
2019-03-03T09:16:33.066Z,11.37
2019-03-03T09:19:20.170Z,11.66
2019-03-03T09:22:08.215Z,11.71
2019-03-03T09:24:47.095Z,11.63
2019-03-03T09:27:44.370Z,11.54
2019-03-03T09:30:33.124Z,11.46
2019-03-03T09:33:24.107Z,11.35
2019-03-03T09:35:58.367Z,11.37
2019-03-03T09:38:48.455Z,11.42
2019-03-03T09:41:25.153Z,11.38
2019-03-03T09:44:19.719Z,11.51
2019-03-03T09:47:02.130Z,11.74
2019-03-03T09:49:38.454Z,11.77
2019-03-03T09:52:23.731Z,11.80
2019-03-03T09:55:01.271Z,11.77
2019-03-03T09:57:52.248Z,11.82
2019-03-03T10:00:33.459Z,11.89
2019-03-03T10:03:20.328Z,12.04
2019-03-03T10:06:00.838Z,12.10
2019-03-03T10:08:57.918Z,12.34
2019-03-03T10:11:41.844Z,12.05
2019-03-03T10:14:25.423Z,11.71
2019-03-03T10:17:01.935Z,11.57
2019-03-03T10:19:47.227Z,11.32
2019-03-03T10:22:34.235Z,11.41
2019-03-03T10:25:19.082Z,11.57
2019-03-03T10:28:11.963Z,11.82
2019-03-03T10:31:09.359Z,11.98
2019-03-03T10:34:03.579Z,12.15
2019-03-03T10:36:52.868Z,12.28
2019-03-03T10:39:56.255Z,12.27
2019-03-03T10:42:41.566Z,12.41
2019-03-03T10:45:36.386Z,12.55
2019-03-03T10:48:23.571Z,12.41
2019-03-03T10:51:11.612Z,12.31
2019-03-03T10:53:55.645Z,12.29
2019-03-03T10:56:43.648Z,12.24
2019-03-03T10:59:34.939Z,12.36
2019-03-03T11:02:42.127Z,12.60
2019-03-03T11:05:25.309Z,12.48
2019-03-03T11:08:04.767Z,12.58
2019-03-03T11:10:44.448Z,12.61
2019-03-03T11:13:26.940Z,12.97
2019-03-03T11:16:13.932Z,13.02
2019-03-03T11:18:56.200Z,12.86
2019-03-03T11:21:50.189Z,12.59
2019-03-03T11:24:41.116Z,12.53
2019-03-03T11:27:31.968Z,12.69
2019-03-03T11:30:20.022Z,12.70
2019-03-03T11:33:14.515Z,12.60
2019-03-03T11:36:05.677Z,12.67
2019-03-03T11:39:02.647Z,12.53
2019-03-03T11:41:41.849Z,12.77
2019-03-03T11:44:20.720Z,12.69
2019-03-03T11:46:57.162Z,12.50
2019-03-03T11:49:32.327Z,12.69
2019-03-03T11:52:23.388Z,12.73
2019-03-03T11:55:13.053Z,12.87
2019-03-03T11:58:01.099Z,12.57
2019-03-03T12:00:50.669Z,12.71
2019-03-03T12:03:38.722Z,12.57
2019-03-03T12:06:15.962Z,12.54
2019-03-03T12:09:13.386Z,12.72
2019-03-03T12:12:07.026Z,12.68
2019-03-03T12:14:54.008Z,12.69
2019-03-03T12:17:35.847Z,12.67
2019-03-03T12:20:30.811Z,12.58
2019-03-03T12:23:17.885Z,12.30
2019-03-03T12:25:53.667Z,12.12
2019-03-03T12:28:33.073Z,11.95
2019-03-03T12:31:21.067Z,11.93
2019-03-03T12:33:56.955Z,11.84
2019-03-03T12:36:54.240Z,11.89
2019-03-03T12:39:51.710Z,11.89
2019-03-03T12:42:36.414Z,11.81
2019-03-03T12:45:11.118Z,12.02
2019-03-03T12:47:46.872Z,11.94
2019-03-03T12:50:37.659Z,12.09
2019-03-03T12:53:13.547Z,12.11
2019-03-03T12:55:47.475Z,11.94
2019-03-03T12:58:31.875Z,12.01
2019-03-03T13:01:23.840Z,12.09
2019-03-03T13:04:10.447Z,12.05
2019-03-03T13:06:46.517Z,11.96
2019-03-03T13:09:22.489Z,11.93
2019-03-03T13:12:04.228Z,12.01
2019-03-03T13:14:50.814Z,11.98
2019-03-03T13:17:35.234Z,11.89
2019-03-03T13:20:11.649Z,12.01
2019-03-03T13:23:09.011Z,11.82
2019-03-03T13:25:57.010Z,11.93
2019-03-03T13:28:54.473Z,11.81
2019-03-03T13:31:41.206Z,11.69
2019-03-03T13:34:28.320Z,11.93
2019-03-03T13:37:13.724Z,11.90
2019-03-03T13:40:00.526Z,11.87
2019-03-03T13:42:48.703Z,11.61
2019-03-03T13:45:18.108Z,11.69
2019-03-03T13:47:47.177Z,11.67
2019-03-03T13:50:16.955Z,11.67
2019-03-03T13:52:45.979Z,11.67
2019-03-03T13:55:15.776Z,11.57
2019-03-03T13:57:44.947Z,11.39
2019-03-03T14:00:18.265Z,11.27
2019-03-03T14:02:47.367Z,11.24
2019-03-03T14:05:18.506Z,11.16
2019-03-03T14:07:47.735Z,11.24
2019-03-03T14:10:16.895Z,11.26
2019-03-03T14:12:45.953Z,11.20
2019-03-03T14:15:15.979Z,11.14
2019-03-03T14:17:45.037Z,10.95
2019-03-03T14:20:18.882Z,10.91
2019-03-03T14:22:47.979Z,10.86
2019-03-03T14:25:17.220Z,10.81
2019-03-03T14:27:46.230Z,10.73
2019-03-03T14:30:17.591Z,10.76
2019-03-03T14:32:46.591Z,10.73
2019-03-03T14:35:16.273Z,10.66
2019-03-03T14:37:45.321Z,10.74
2019-03-03T14:40:15.742Z,10.79
2019-03-03T14:42:44.818Z,10.66
2019-03-03T14:45:14.877Z,10.80
2019-03-03T14:47:43.999Z,10.84
2019-03-03T14:50:14.381Z,10.72
2019-03-03T14:52:43.520Z,10.64
2019-03-03T14:55:14.458Z,10.71
2019-03-03T14:57:43.477Z,10.65
2019-03-03T15:00:27.186Z,10.62
2019-03-03T15:02:56.704Z,10.53
2019-03-03T15:05:25.728Z,10.55
2019-03-03T15:07:54.865Z,10.46
2019-03-03T15:10:24.050Z,10.25
2019-03-03T15:12:53.076Z,10.24
2019-03-03T15:15:22.658Z,10.16
2019-03-03T15:17:51.728Z,10.11
2019-03-03T15:20:20.899Z,10.18
2019-03-03T15:22:49.958Z,10.18
2019-03-03T15:25:19.261Z,10.31
2019-03-03T15:27:48.864Z,10.45
2019-03-03T15:30:18.984Z,10.44
2019-03-03T15:32:48.364Z,10.29
2019-03-03T15:35:17.850Z,10.39
2019-03-03T15:37:47.153Z,10.38
2019-03-03T15:40:17.572Z,10.41
2019-03-03T15:42:46.995Z,10.36
2019-03-03T15:45:18.087Z,10.35
2019-03-03T15:47:47.217Z,10.36
2019-03-03T15:50:17.595Z,10.33
2019-03-03T15:52:46.672Z,10.22
2019-03-03T15:55:15.724Z,10.12
2019-03-03T15:57:44.964Z,10.12
2019-03-03T16:00:22.520Z,10.03
2019-03-03T16:02:51.586Z,10.09
2019-03-03T16:05:22.075Z,10.06
2019-03-03T16:07:51.090Z,10.08
2019-03-03T16:10:20.130Z,10.04
2019-03-03T16:12:49.180Z,10.01
2019-03-03T16:15:18.783Z,9.94
2019-03-03T16:17:47.928Z,9.84
2019-03-03T16:20:19.489Z,9.77
2019-03-03T16:22:48.538Z,9.80
2019-03-03T16:25:19.221Z,9.80
2019-03-03T16:27:48.364Z,9.80
2019-03-03T16:30:18.450Z,9.75
2019-03-03T16:32:47.503Z,9.68
2019-03-03T16:35:16.789Z,9.69
2019-03-03T16:37:45.975Z,9.69
2019-03-03T16:40:16.949Z,9.69
2019-03-03T16:42:47.024Z,9.71
2019-03-03T16:45:16.571Z,9.62
2019-03-03T16:47:45.621Z,9.61
2019-03-03T16:50:16.144Z,9.59
2019-03-03T16:52:45.382Z,9.53
2019-03-03T16:55:14.956Z,9.48
2019-03-03T16:57:44.279Z,9.49
2019-03-03T17:00:15.308Z,9.39
2019-03-03T17:02:44.525Z,9.36
2019-03-03T17:05:14.480Z,9.36
2019-03-03T17:07:43.608Z,9.41
2019-03-03T17:10:13.270Z,9.44
2019-03-03T17:12:42.355Z,9.47
2019-03-03T17:15:14.547Z,9.45
2019-03-03T17:17:43.586Z,9.46
2019-03-03T17:20:12.649Z,9.42
2019-03-03T17:22:41.836Z,9.42
2019-03-03T17:25:13.130Z,9.37
2019-03-03T17:27:42.188Z,9.34
2019-03-03T17:30:14.019Z,9.29
2019-03-03T17:32:43.019Z,9.22
2019-03-03T17:35:12.359Z,9.25
2019-03-03T17:37:41.397Z,9.25
2019-03-03T17:40:12.749Z,9.23
2019-03-03T17:42:41.871Z,9.26
2019-03-03T17:45:13.073Z,9.30
2019-03-03T17:47:42.133Z,9.33
2019-03-03T17:50:14.004Z,9.34
2019-03-03T17:52:44.873Z,9.34
2019-03-03T17:55:15.740Z,9.38
2019-03-03T17:57:45.028Z,9.36
2019-03-03T18:00:17.535Z,9.35
2019-03-03T18:02:46.862Z,9.30
2019-03-03T18:05:17.566Z,9.26
2019-03-03T18:07:47.001Z,9.23
2019-03-03T18:10:16.652Z,9.23
2019-03-03T18:12:46.185Z,9.21
2019-03-03T18:15:15.556Z,9.19
2019-03-03T18:17:44.784Z,9.20
2019-03-03T18:20:15.570Z,9.21
2019-03-03T18:22:44.722Z,9.16
2019-03-03T18:25:16.555Z,9.22
2019-03-03T18:27:45.965Z,9.25
2019-03-03T18:30:17.206Z,9.27
2019-03-03T18:32:46.448Z,9.24
2019-03-03T18:35:15.758Z,9.22
2019-03-03T18:37:44.887Z,9.20
2019-03-03T18:40:15.389Z,9.20
2019-03-03T18:42:45.381Z,9.25
2019-03-03T18:45:14.717Z,9.26
2019-03-03T18:47:43.924Z,9.21
2019-03-03T18:50:15.172Z,9.19
2019-03-03T18:52:44.226Z,9.19
2019-03-03T18:55:13.433Z,9.17
2019-03-03T18:57:42.485Z,9.23
2019-03-03T19:00:23.404Z,9.26
2019-03-03T19:02:53.958Z,9.26
2019-03-03T19:05:23.288Z,9.28
2019-03-03T19:07:53.694Z,9.33
2019-03-03T19:10:26.238Z,9.32
2019-03-03T19:12:55.290Z,9.29
2019-03-03T19:15:24.336Z,9.28
2019-03-03T19:17:53.738Z,9.27
2019-03-03T19:20:22.908Z,9.26
2019-03-03T19:22:52.237Z,9.28
2019-03-03T19:25:21.658Z,9.35
2019-03-03T19:27:50.861Z,9.39
2019-03-03T19:30:22.041Z,9.43
2019-03-03T19:32:57.255Z,9.45
2019-03-03T19:35:26.529Z,9.48
2019-03-03T19:37:55.857Z,9.53
2019-03-03T19:40:25.058Z,9.60
2019-03-03T19:42:54.225Z,9.65
2019-03-03T19:45:25.825Z,9.69
2019-03-03T19:47:55.034Z,9.78
2019-03-03T19:50:24.351Z,9.92
2019-03-03T19:52:53.894Z,10.01
2019-03-03T19:55:23.414Z,10.10
2019-03-03T19:57:52.939Z,10.18
2019-03-03T20:00:35.082Z,10.26
2019-03-03T20:02:57.067Z,10.38
2019-03-03T20:05:26.291Z,10.45
2019-03-03T20:07:55.662Z,10.46
2019-03-03T20:10:24.795Z,10.55
2019-03-03T20:12:53.955Z,10.56
2019-03-03T20:15:23.189Z,10.59
2019-03-03T20:17:52.347Z,10.63
2019-03-03T20:20:21.476Z,10.63
2019-03-03T20:22:50.679Z,10.66
2019-03-03T20:25:21.145Z,10.66
2019-03-03T20:27:51.782Z,10.68
2019-03-03T20:30:21.197Z,10.70
2019-03-03T20:32:50.488Z,10.70
2019-03-03T20:35:19.652Z,10.71
2019-03-03T20:37:48.787Z,10.68
2019-03-03T20:40:18.284Z,10.64
2019-03-03T20:42:47.454Z,10.61
2019-03-03T20:45:18.765Z,10.63
2019-03-03T20:47:47.879Z,10.63
2019-03-03T20:50:19.057Z,10.57
2019-03-03T20:52:48.323Z,10.55
2019-03-03T20:55:18.850Z,10.56
2019-03-03T20:57:48.357Z,10.56
2019-03-03T21:00:19.914Z,10.51
2019-03-03T21:02:48.920Z,10.57
2019-03-03T21:05:18.495Z,10.56
2019-03-03T21:07:51.496Z,10.57
2019-03-03T21:10:19.910Z,10.57
2019-03-03T21:12:48.994Z,10.59
2019-03-03T21:15:24.781Z,10.60
2019-03-03T21:18:00.430Z,10.63
2019-03-03T21:20:35.043Z,10.69
2019-03-03T21:23:05.972Z,10.63
2019-03-03T21:25:42.546Z,10.64
2019-03-03T21:28:18.603Z,10.69
2019-03-03T21:31:01.684Z,10.68
2019-03-03T21:33:34.735Z,10.66
2019-03-03T21:36:09.474Z,10.75
2019-03-03T21:38:43.201Z,10.72
2019-03-03T21:41:23.115Z,10.70
2019-03-03T21:43:54.852Z,10.76
2019-03-03T21:46:35.663Z,10.74
2019-03-03T21:49:13.883Z,10.77
2019-03-03T21:51:46.566Z,10.76
2019-03-03T21:54:19.972Z,10.77
2019-03-03T21:56:55.348Z,10.78
2019-03-03T21:59:26.799Z,10.74
2019-03-03T22:01:59.273Z,10.74
2019-03-03T22:04:38.608Z,10.75
2019-03-03T22:07:13.941Z,10.82
2019-03-03T22:09:50.364Z,10.77
2019-03-03T22:12:23.248Z,10.78
2019-03-03T22:14:59.873Z,10.76
2019-03-03T22:17:32.552Z,10.74
2019-03-03T22:20:06.500Z,10.73
2019-03-03T22:22:42.151Z,10.72
2019-03-03T22:25:17.245Z,10.74
2019-03-03T22:27:54.474Z,10.72
2019-03-03T22:30:29.508Z,10.74
2019-03-03T22:33:12.630Z,10.71
2019-03-03T22:35:41.786Z,10.73
2019-03-03T22:38:18.778Z,10.73
2019-03-03T22:40:54.046Z,10.73
2019-03-03T22:43:29.797Z,10.73
2019-03-03T22:46:03.120Z,10.73
2019-03-03T22:48:38.494Z,10.78
2019-03-03T22:51:18.811Z,10.72
2019-03-03T22:54:15.904Z,10.75
2019-03-03T22:56:48.379Z,10.74
2019-03-03T22:59:27.148Z,10.74
2019-03-03T23:02:07.162Z,10.73
2019-03-03T23:05:09.117Z,10.79
2019-03-03T23:08:01.355Z,10.78
2019-03-03T23:11:13.177Z,10.72
2019-03-03T23:14:42.806Z,10.76
2019-03-03T23:17:39.508Z,10.71
2019-03-03T23:20:44.751Z,10.65
2019-03-03T23:23:51.221Z,10.67
2019-03-03T23:26:29.991Z,10.61
2019-03-03T23:29:11.019Z,10.61
2019-03-03T23:31:46.957Z,10.65
2019-03-03T23:34:21.294Z,10.57
2019-03-03T23:37:05.613Z,10.60
2019-03-03T23:39:45.091Z,10.59
2019-03-03T23:42:18.630Z,10.59
2019-03-03T23:44:52.980Z,10.55
2019-03-03T23:47:23.977Z,10.58
2019-03-03T23:49:57.850Z,10.63
2019-03-03T23:52:30.323Z,10.63
2019-03-03T23:55:04.274Z,10.61
2019-03-03T23:57:39.490Z,10.65
